Time;durP1;ratioP1;P1;durP2;ratioP2;P2;SDS_P1;SDS_P2;PMS_P1;PMS_P2;Temp;Humidity;BMP_temperature;BMP_pressure;BME280_temperature;BME280_humidity;BME280_pressure;Samples;Min_cycle;Max_cycle;Signal;HPM_P1;HPM_P2
2022/06/29 00:00:52;;;;;;;;;;;9.90;99.90;;;;;;5063095;28;20067;-73
2022/06/29 00:03:19;;;;;;;;;;;10.00;99.90;;;;;;5063686;28;19915;-72
2022/06/29 00:05:46;;;;;;;;;;;10.00;99.90;;;;;;5064500;28;20019;-72
2022/06/29 00:08:13;;;;;;;;;;;10.10;99.90;;;;;;5054136;28;19909;-73
2022/06/29 00:10:39;;;;;;;;;;;10.20;99.90;;;;;;5054304;28;19950;-72
2022/06/29 00:13:07;;;;;;;;;;;10.20;99.90;;;;;;5053910;28;19917;-73
2022/06/29 00:15:34;;;;;;;;;;;10.20;99.90;;;;;;5053915;28;20002;-71
2022/06/29 00:18:01;;;;;;;;;;;10.30;99.90;;;;;;5054559;28;19936;-72
2022/06/29 00:20:27;;;;;;;;;;;10.30;99.90;;;;;;5053978;28;19916;-72
2022/06/29 00:22:54;;;;;;;;;;;10.40;99.90;;;;;;5054072;28;19918;-72
2022/06/29 00:25:21;;;;;;;;;;;10.50;99.90;;;;;;5053907;28;19916;-73
2022/06/29 00:27:48;;;;;;;;;;;10.60;99.90;;;;;;5054155;28;20272;-72
2022/06/29 00:30:15;;;;;;;;;;;10.60;99.90;;;;;;5054133;28;19909;-72
2022/06/29 00:32:41;;;;;;;;;;;10.60;99.90;;;;;;5054027;28;19908;-72
2022/06/29 00:35:08;;;;;;;;;;;10.60;99.90;;;;;;5053297;28;19917;-72
2022/06/29 00:37:35;;;;;;;;;;;10.70;99.90;;;;;;5059362;28;19924;-72
2022/06/29 00:40:03;;;;;;;;;;;10.70;99.90;;;;;;5073774;28;19921;-72
2022/06/29 00:42:31;;;;;;;;;;;10.70;99.90;;;;;;5073478;28;19908;-72
2022/06/29 00:44:58;;;;;;;;;;;10.80;99.90;;;;;;5072508;28;19916;-72
2022/06/29 00:47:24;;;;;;;;;;;10.80;99.90;;;;;;5073258;28;20425;-71
2022/06/29 00:49:51;;;;;;;;;;;10.80;99.90;;;;;;5073352;28;19920;-73
2022/06/29 00:52:20;;;;;;;;;;;10.80;99.90;;;;;;5073210;28;19908;-72
2022/06/29 00:54:52;;;;;;;;;;;10.90;99.90;;;;;;5072683;28;19912;-73
2022/06/29 00:57:20;;;;;;;;;;;10.90;99.90;;;;;;5072747;28;19908;-73
2022/06/29 00:59:51;;;;;;;;;;;11.00;99.90;;;;;;5072881;28;19916;-74
2022/06/29 01:02:19;;;;;;;;;;;11.00;99.90;;;;;;5072571;28;19934;-73
2022/06/29 01:04:46;;;;;;;;;;;11.10;99.90;;;;;;5073913;28;19909;-74
2022/06/29 01:07:17;;;;;;;;;;;11.10;99.90;;;;;;5074062;28;19909;-73
2022/06/29 01:09:44;;;;;;;;;;;11.10;99.90;;;;;;5074931;28;19957;-73
2022/06/29 01:12:11;;;;;;;;;;;11.20;99.90;;;;;;5073564;28;19912;-73
2022/06/29 01:14:40;;;;;;;;;;;11.20;99.90;;;;;;5073043;28;19982;-72
2022/06/29 01:17:07;;;;;;;;;;;11.20;99.90;;;;;;5073037;28;19913;-74
2022/06/29 01:19:33;;;;;;;;;;;11.30;99.90;;;;;;5074825;28;20161;-72
2022/06/29 01:22:19;;;;;;;;;;;11.30;99.90;;;;;;5070544;28;20369;-73
2022/06/29 01:24:46;;;;;;;;;;;11.30;99.90;;;;;;5071422;28;19927;-73
2022/06/29 01:27:14;;;;;;;;;;;11.40;99.90;;;;;;5072857;28;19908;-72
2022/06/29 01:29:41;;;;;;;;;;;11.40;99.90;;;;;;5074351;28;19995;-73
2022/06/29 01:32:08;;;;;;;;;;;11.50;99.90;;;;;;5073239;28;19912;-72
2022/06/29 01:34:35;;;;;;;;;;;11.50;99.90;;;;;;5073242;28;20017;-74
2022/06/29 01:37:02;;;;;;;;;;;11.60;99.90;;;;;;5072887;28;19908;-73
2022/06/29 01:39:29;;;;;;;;;;;11.70;99.90;;;;;;5074606;28;19920;-73
2022/06/29 01:41:56;;;;;;;;;;;11.80;99.90;;;;;;5073521;28;19908;-73
2022/06/29 01:44:23;;;;;;;;;;;11.90;99.90;;;;;;5073310;28;19909;-74
2022/06/29 01:46:49;;;;;;;;;;;11.90;99.90;;;;;;5071967;28;20377;-72
2022/06/29 01:49:16;;;;;;;;;;;12.00;99.90;;;;;;5072468;28;19924;-72
2022/06/29 01:51:43;;;;;;;;;;;12.00;99.90;;;;;;5072415;28;20435;-73
2022/06/29 01:54:10;;;;;;;;;;;12.10;99.90;;;;;;5072434;28;19909;-73
2022/06/29 01:56:36;;;;;;;;;;;12.10;99.90;;;;;;5072144;28;19908;-73
2022/06/29 01:59:03;;;;;;;;;;;12.30;99.90;;;;;;5072071;28;19909;-72
2022/06/29 02:01:30;;;;;;;;;;;12.30;99.90;;;;;;5072379;28;20366;-72
2022/06/29 02:03:56;;;;;;;;;;;12.40;99.90;;;;;;5072174;28;20315;-72
2022/06/29 02:06:24;;;;;;;;;;;12.40;99.90;;;;;;5071892;28;19909;-73
2022/06/29 02:08:52;;;;;;;;;;;12.50;99.90;;;;;;5071211;28;20358;-73
2022/06/29 02:11:19;;;;;;;;;;;12.60;99.90;;;;;;5071625;28;19908;-73
2022/06/29 02:13:46;;;;;;;;;;;12.60;99.90;;;;;;5072175;28;19909;-73
2022/06/29 02:16:13;;;;;;;;;;;12.70;99.90;;;;;;5074723;28;20365;-72
2022/06/29 02:18:39;;;;;;;;;;;12.70;99.90;;;;;;5075139;28;19971;-74
2022/06/29 02:21:06;;;;;;;;;;;12.80;99.90;;;;;;5074851;28;19928;-73
2022/06/29 02:23:32;;;;;;;;;;;12.80;99.90;;;;;;5075556;28;19916;-74
2022/06/29 02:25:59;;;;;;;;;;;12.90;99.90;;;;;;5075190;28;20407;-72
2022/06/29 02:28:26;;;;;;;;;;;13.00;99.90;;;;;;5074409;28;19966;-73
2022/06/29 02:36:22;;;;;;;;;;;13.10;99.90;;;;;;5074809;28;20311;-73
2022/06/29 02:38:48;;;;;;;;;;;13.20;99.90;;;;;;5073601;28;19960;-73
2022/06/29 02:41:15;;;;;;;;;;;13.20;99.90;;;;;;5075035;28;19969;-73
2022/06/29 02:43:41;;;;;;;;;;;13.20;99.90;;;;;;5074042;28;20262;-73
2022/06/29 02:46:08;;;;;;;;;;;13.20;99.90;;;;;;5075283;28;20006;-73
2022/06/29 02:48:35;;;;;;;;;;;13.20;99.90;;;;;;5072195;28;20281;-73
2022/06/29 02:51:01;;;;;;;;;;;13.30;99.90;;;;;;5074931;28;20280;-72
2022/06/29 02:53:28;;;;;;;;;;;13.20;99.90;;;;;;5075297;28;19909;-73
2022/06/29 02:55:55;;;;;;;;;;;13.30;99.90;;;;;;5071070;28;19913;-73
2022/06/29 02:58:21;;;;;;;;;;;13.30;99.90;;;;;;5072347;28;19908;-72
2022/06/29 03:00:48;;;;;;;;;;;13.30;99.90;;;;;;5074086;28;20359;-75
2022/06/29 03:03:15;;;;;;;;;;;13.30;99.90;;;;;;5074496;28;19908;-72
2022/06/29 03:05:41;;;;;;;;;;;13.40;99.90;;;;;;5074226;28;20007;-74
2022/06/29 03:08:08;;;;;;;;;;;13.40;99.90;;;;;;5074339;28;20389;-74
2022/06/29 03:10:35;;;;;;;;;;;13.40;99.90;;;;;;5074424;28;19916;-75
2022/06/29 03:13:01;;;;;;;;;;;13.40;99.90;;;;;;5073815;28;19912;-75
2022/06/29 03:15:28;;;;;;;;;;;13.50;99.90;;;;;;5073595;28;20261;-72
2022/06/29 03:17:55;;;;;;;;;;;13.50;99.90;;;;;;5073793;28;19912;-73
2022/06/29 03:20:22;;;;;;;;;;;13.50;99.90;;;;;;5073456;28;19916;-72
2022/06/29 03:22:49;;;;;;;;;;;13.50;99.90;;;;;;5073779;28;19915;-73
2022/06/29 03:25:16;;;;;;;;;;;13.50;99.90;;;;;;5073480;28;19917;-72
2022/06/29 03:27:43;;;;;;;;;;;13.60;99.90;;;;;;5072975;28;19912;-73
2022/06/29 03:30:10;;;;;;;;;;;13.60;99.90;;;;;;5073078;28;19913;-74
2022/06/29 03:32:36;;;;;;;;;;;13.60;99.90;;;;;;5072847;28;19965;-74
2022/06/29 03:35:04;;;;;;;;;;;13.60;99.90;;;;;;5072973;28;20007;-73
2022/06/29 03:37:31;;;;;;;;;;;13.60;99.90;;;;;;5073248;28;20295;-73
2022/06/29 03:39:58;;;;;;;;;;;13.60;99.90;;;;;;5072899;28;19916;-73
2022/06/29 03:42:24;;;;;;;;;;;13.70;99.90;;;;;;5073288;28;19909;-73
2022/06/29 03:44:51;;;;;;;;;;;13.70;99.90;;;;;;5073381;28;19971;-72
2022/06/29 03:47:18;;;;;;;;;;;13.70;99.90;;;;;;5073622;28;20424;-74
2022/06/29 03:49:44;;;;;;;;;;;13.70;99.90;;;;;;5073379;28;19909;-74
2022/06/29 03:52:11;;;;;;;;;;;13.70;99.90;;;;;;5073445;28;19908;-74
2022/06/29 03:54:38;;;;;;;;;;;13.80;99.90;;;;;;5073335;28;19995;-72
2022/06/29 03:57:05;;;;;;;;;;;13.80;99.90;;;;;;5073261;28;19916;-72
2022/06/29 03:59:31;;;;;;;;;;;13.90;99.90;;;;;;5073241;28;20007;-73
2022/06/29 04:01:58;;;;;;;;;;;13.90;99.90;;;;;;5073158;28;20392;-73
2022/06/29 04:04:25;;;;;;;;;;;13.90;99.90;;;;;;5073347;28;19915;-73
2022/06/29 04:06:51;;;;;;;;;;;13.90;99.90;;;;;;5073162;28;19912;-72
2022/06/29 04:09:18;;;;;;;;;;;13.90;99.90;;;;;;5072957;28;19915;-73
2022/06/29 04:11:54;;;;;;;;;;;13.90;99.90;;;;;;5105708;28;20258;-72
2022/06/29 04:14:22;;;;;;;;;;;13.90;99.90;;;;;;5073083;28;19962;-72
2022/06/29 04:16:50;;;;;;;;;;;14.00;99.90;;;;;;5072834;28;19909;-72
2022/06/29 04:19:17;;;;;;;;;;;13.90;99.90;;;;;;5072728;28;19923;-72
2022/06/29 04:21:43;;;;;;;;;;;14.00;99.90;;;;;;5072929;28;19991;-72
2022/06/29 04:24:10;;;;;;;;;;;14.00;99.90;;;;;;5072772;28;19957;-73
2022/06/29 04:26:37;;;;;;;;;;;14.00;99.90;;;;;;5072310;28;19999;-72
2022/06/29 04:29:04;;;;;;;;;;;13.90;99.90;;;;;;5072318;28;19909;-73
2022/06/29 04:31:30;;;;;;;;;;;13.90;99.90;;;;;;5071896;28;19913;-73
2022/06/29 04:33:57;;;;;;;;;;;13.90;99.90;;;;;;5072335;28;20037;-72
2022/06/29 04:36:24;;;;;;;;;;;13.90;99.90;;;;;;5072698;28;19909;-72
2022/06/29 04:38:50;;;;;;;;;;;13.90;99.90;;;;;;5071761;28;19921;-71
2022/06/29 04:41:19;;;;;;;;;;;13.90;99.90;;;;;;5072339;28;20254;-73
2022/06/29 04:43:46;;;;;;;;;;;13.90;99.90;;;;;;5072629;28;19991;-73
2022/06/29 04:46:25;;;;;;;;;;;13.90;99.90;;;;;;5072547;28;19930;-72
2022/06/29 04:48:55;;;;;;;;;;;13.90;99.90;;;;;;5071066;28;20489;-72
2022/06/29 04:51:22;;;;;;;;;;;13.90;99.90;;;;;;5072371;28;19915;-73
2022/06/29 04:53:49;;;;;;;;;;;13.80;99.90;;;;;;5072475;28;19909;-73
2022/06/29 04:56:16;;;;;;;;;;;13.80;99.90;;;;;;5072275;28;19916;-72
2022/06/29 04:58:43;;;;;;;;;;;13.80;99.90;;;;;;5072797;28;20312;-74
2022/06/29 05:01:10;;;;;;;;;;;13.70;99.90;;;;;;5072358;28;19923;-73
2022/06/29 05:03:37;;;;;;;;;;;13.70;99.90;;;;;;5072675;28;20384;-74
2022/06/29 05:06:03;;;;;;;;;;;13.70;99.90;;;;;;5072441;28;19912;-72
2022/06/29 05:08:30;;;;;;;;;;;13.60;99.90;;;;;;5072771;28;19955;-72
2022/06/29 05:10:57;;;;;;;;;;;13.60;99.90;;;;;;5072255;28;19909;-72
2022/06/29 05:13:23;;;;;;;;;;;13.60;99.90;;;;;;5072520;28;19956;-73
2022/06/29 05:15:50;;;;;;;;;;;13.50;99.90;;;;;;5072034;28;19920;-72
2022/06/29 05:18:17;;;;;;;;;;;13.50;99.90;;;;;;5072838;28;20003;-72
2022/06/29 05:20:43;;;;;;;;;;;13.50;99.90;;;;;;5072223;28;19969;-74
2022/06/29 05:23:11;;;;;;;;;;;13.40;99.90;;;;;;5072530;28;19908;-73
2022/06/29 05:25:39;;;;;;;;;;;13.40;99.90;;;;;;5072221;28;19909;-73
2022/06/29 05:28:06;;;;;;;;;;;13.40;99.90;;;;;;5072401;28;19912;-73
2022/06/29 05:30:33;;;;;;;;;;;13.30;99.90;;;;;;5072259;28;20350;-72
2022/06/29 05:32:59;;;;;;;;;;;13.30;99.90;;;;;;5072338;28;19917;-72
2022/06/29 05:35:29;;;;;;;;;;;13.30;99.90;;;;;;5069749;28;19912;-72
2022/06/29 05:37:56;;;;;;;;;;;13.30;99.90;;;;;;5071775;28;20426;-73
2022/06/29 05:40:24;;;;;;;;;;;13.20;99.90;;;;;;5072174;28;19941;-72
2022/06/29 05:42:51;;;;;;;;;;;13.20;99.90;;;;;;5071838;28;19908;-72
2022/06/29 05:45:18;;;;;;;;;;;13.10;99.90;;;;;;5071757;28;20364;-72
2022/06/29 05:47:45;;;;;;;;;;;13.10;99.90;;;;;;5072291;28;20369;-72
2022/06/29 05:50:13;;;;;;;;;;;13.10;99.90;;;;;;5074883;28;20318;-72
2022/06/29 05:52:40;;;;;;;;;;;13.10;99.90;;;;;;5075779;28;19920;-72
2022/06/29 05:55:07;;;;;;;;;;;13.00;99.90;;;;;;5075795;28;19923;-72
2022/06/29 05:57:34;;;;;;;;;;;13.00;99.90;;;;;;5075956;28;19908;-72
2022/06/29 06:00:04;;;;;;;;;;;13.00;99.90;;;;;;5075667;28;19985;-73
2022/06/29 06:02:31;;;;;;;;;;;12.90;99.90;;;;;;5075308;28;19908;-73
2022/06/29 06:04:57;;;;;;;;;;;12.90;99.90;;;;;;5075671;28;19995;-72
2022/06/29 06:07:24;;;;;;;;;;;12.90;99.90;;;;;;5075442;28;19932;-72
2022/06/29 06:09:51;;;;;;;;;;;12.90;99.90;;;;;;5075855;28;19916;-72
2022/06/29 06:12:17;;;;;;;;;;;12.80;99.90;;;;;;5075543;28;19908;-72
2022/06/29 06:14:44;;;;;;;;;;;12.80;99.90;;;;;;5075687;28;20003;-73
2022/06/29 06:17:11;;;;;;;;;;;12.80;99.90;;;;;;5075935;28;19913;-73
2022/06/29 06:19:38;;;;;;;;;;;12.80;99.90;;;;;;5075570;28;20288;-72
2022/06/29 06:22:04;;;;;;;;;;;12.80;99.90;;;;;;5075760;28;20327;-72
2022/06/29 06:24:31;;;;;;;;;;;12.80;99.90;;;;;;5075614;28;20277;-73
2022/06/29 06:26:57;;;;;;;;;;;12.80;99.90;;;;;;5075749;28;19909;-72
2022/06/29 06:29:24;;;;;;;;;;;12.80;99.90;;;;;;5075168;28;19909;-72
2022/06/29 06:31:51;;;;;;;;;;;12.70;99.90;;;;;;5075703;28;19954;-72
2022/06/29 06:34:17;;;;;;;;;;;12.70;99.90;;;;;;5075433;28;19908;-72
2022/06/29 06:36:44;;;;;;;;;;;12.70;99.90;;;;;;5075775;28;20269;-72
2022/06/29 06:39:11;;;;;;;;;;;12.70;99.90;;;;;;5071967;28;19935;-72
2022/06/29 06:41:37;;;;;;;;;;;12.60;99.90;;;;;;5075600;28;19916;-72
2022/06/29 06:44:04;;;;;;;;;;;12.60;99.90;;;;;;5074959;28;19931;-72
2022/06/29 06:46:31;;;;;;;;;;;12.60;99.90;;;;;;5075369;28;19909;-71
2022/06/29 06:48:57;;;;;;;;;;;12.60;99.90;;;;;;5075468;28;20396;-72
2022/06/29 06:51:24;;;;;;;;;;;12.50;99.90;;;;;;5075489;28;20337;-72
2022/06/29 06:53:51;;;;;;;;;;;12.40;99.90;;;;;;5075095;28;19912;-72
2022/06/29 06:56:18;;;;;;;;;;;12.40;99.90;;;;;;5075269;28;19922;-72
2022/06/29 06:58:45;;;;;;;;;;;12.40;99.90;;;;;;5074957;28;19935;-72
2022/06/29 07:01:12;;;;;;;;;;;12.40;99.90;;;;;;5074291;28;19921;-72
2022/06/29 07:03:38;;;;;;;;;;;12.30;99.90;;;;;;5075089;28;19913;-72
2022/06/29 07:06:06;;;;;;;;;;;12.30;99.90;;;;;;5075104;28;20384;-72
2022/06/29 07:08:33;;;;;;;;;;;12.20;99.90;;;;;;5074778;28;19916;-72
2022/06/29 07:11:00;;;;;;;;;;;12.10;99.90;;;;;;5075057;28;20417;-72
2022/06/29 07:13:27;;;;;;;;;;;12.10;99.90;;;;;;5075080;28;19908;-72
2022/06/29 07:15:54;;;;;;;;;;;12.10;99.90;;;;;;5074704;28;19908;-71
2022/06/29 07:18:21;;;;;;;;;;;12.10;99.90;;;;;;5074979;28;19909;-72
2022/06/29 07:20:48;;;;;;;;;;;12.00;99.90;;;;;;5074772;28;20042;-72
2022/06/29 07:23:15;;;;;;;;;;;12.00;99.90;;;;;;5075054;28;20014;-72
2022/06/29 07:25:42;;;;;;;;;;;11.90;99.90;;;;;;5074690;28;19909;-72
2022/06/29 07:28:08;;;;;;;;;;;12.00;99.90;;;;;;5074235;28;20269;-72
2022/06/29 07:30:35;;;;;;;;;;;11.90;99.90;;;;;;5074527;28;19920;-72
2022/06/29 07:33:03;;;;;;;;;;;11.90;99.90;;;;;;5074623;28;19908;-72
2022/06/29 07:35:29;;;;;;;;;;;11.90;99.90;;;;;;5074397;28;19908;-72
2022/06/29 07:37:56;;;;;;;;;;;11.90;99.90;;;;;;5074380;28;19931;-71
2022/06/29 07:40:23;;;;;;;;;;;11.90;99.90;;;;;;5074481;28;19916;-72
2022/06/29 07:42:49;;;;;;;;;;;11.90;99.90;;;;;;5074610;28;19959;-72
2022/06/29 07:45:16;;;;;;;;;;;11.90;99.90;;;;;;5074280;28;20934;-71
2022/06/29 07:47:44;;;;;;;;;;;11.80;99.90;;;;;;5074524;28;19916;-72
2022/06/29 07:50:12;;;;;;;;;;;11.80;99.90;;;;;;5074336;28;20003;-72
2022/06/29 07:52:39;;;;;;;;;;;11.80;99.90;;;;;;5072518;28;20284;-73
2022/06/29 07:55:06;;;;;;;;;;;11.70;99.90;;;;;;5064851;28;19923;-72
2022/06/29 07:57:33;;;;;;;;;;;11.80;99.90;;;;;;5054331;28;20361;-73
2022/06/29 08:00:00;;;;;;;;;;;11.70;99.90;;;;;;5055645;28;20349;-73
2022/06/29 08:02:26;;;;;;;;;;;11.70;99.90;;;;;;5068560;28;19920;-72
2022/06/29 08:04:53;;;;;;;;;;;11.70;99.90;;;;;;5072109;28;19910;-73
2022/06/29 08:07:20;;;;;;;;;;;11.70;99.90;;;;;;5059995;28;20374;-72
2022/06/29 08:09:47;;;;;;;;;;;11.70;99.90;;;;;;5073245;28;19908;-72
2022/06/29 08:12:15;;;;;;;;;;;11.70;99.90;;;;;;5073135;28;20250;-72
2022/06/29 08:14:41;;;;;;;;;;;11.70;99.90;;;;;;5072696;28;19913;-73
2022/06/29 08:17:08;;;;;;;;;;;11.70;99.90;;;;;;5073270;28;19983;-72
2022/06/29 08:19:35;;;;;;;;;;;11.70;99.90;;;;;;5072585;28;19944;-72
2022/06/29 08:22:01;;;;;;;;;;;11.70;99.90;;;;;;5073291;28;19916;-72
2022/06/29 08:24:28;;;;;;;;;;;11.70;99.90;;;;;;5073138;28;19978;-72
2022/06/29 08:26:55;;;;;;;;;;;11.70;99.90;;;;;;5072902;28;20004;-72
2022/06/29 08:29:21;;;;;;;;;;;11.70;99.90;;;;;;5072998;28;19916;-72
2022/06/29 08:31:48;;;;;;;;;;;11.60;99.90;;;;;;5073224;28;19912;-72
2022/06/29 08:34:21;;;;;;;;;;;11.70;99.90;;;;;;5073192;28;20339;-73
2022/06/29 08:36:47;;;;;;;;;;;11.60;99.90;;;;;;5072852;28;20362;-73
2022/06/29 08:39:14;;;;;;;;;;;11.60;99.90;;;;;;5072761;28;19931;-73
2022/06/29 08:41:41;;;;;;;;;;;11.60;99.90;;;;;;5060505;28;20381;-73
2022/06/29 08:44:12;;;;;;;;;;;11.60;99.90;;;;;;5054605;28;20383;-73
2022/06/29 08:46:39;;;;;;;;;;;11.60;99.90;;;;;;5057614;28;20365;-73
2022/06/29 08:49:05;;;;;;;;;;;11.60;99.90;;;;;;5061059;28;19922;-72
2022/06/29 08:51:33;;;;;;;;;;;11.60;99.90;;;;;;5056586;28;20000;-72
2022/06/29 08:54:02;;;;;;;;;;;11.60;99.90;;;;;;5057013;28;20043;-73
2022/06/29 08:56:30;;;;;;;;;;;11.50;99.90;;;;;;5057306;28;19944;-72
2022/06/29 08:58:57;;;;;;;;;;;11.60;99.90;;;;;;5055024;28;19963;-73
2022/06/29 09:01:24;;;;;;;;;;;11.50;99.90;;;;;;5063375;28;19927;-72
2022/06/29 09:03:51;;;;;;;;;;;11.50;99.90;;;;;;5060413;28;20345;-73
2022/06/29 09:06:18;;;;;;;;;;;11.50;99.90;;;;;;5060003;28;19913;-73
2022/06/29 09:08:44;;;;;;;;;;;11.40;99.90;;;;;;5061413;28;20037;-73
2022/06/29 09:11:40;;;;;;;;;;;11.40;99.90;;;;;;5063702;28;19951;-74
2022/06/29 09:14:11;;;;;;;;;;;11.40;99.90;;;;;;5066202;28;19999;-73
2022/06/29 09:16:56;;;;;;;;;;;11.40;99.90;;;;;;5072097;28;19916;-72
2022/06/29 09:19:24;;;;;;;;;;;11.40;99.90;;;;;;5070818;28;19909;-72
2022/06/29 09:21:52;;;;;;;;;;;11.40;99.90;;;;;;5070185;28;19923;-72
2022/06/29 09:24:20;;;;;;;;;;;11.40;99.90;;;;;;5072168;28;19914;-72
2022/06/29 09:26:51;;;;;;;;;;;11.40;99.90;;;;;;5074974;28;19908;-72
2022/06/29 09:29:27;;;;;;;;;;;11.30;99.90;;;;;;5076295;28;19908;-72
2022/06/29 09:32:06;;;;;;;;;;;11.40;99.90;;;;;;5076103;28;19970;-72
2022/06/29 09:34:33;;;;;;;;;;;11.30;99.90;;;;;;5074080;28;19915;-72
2022/06/29 09:37:01;;;;;;;;;;;11.30;99.90;;;;;;5074171;28;19999;-72
2022/06/29 09:39:33;;;;;;;;;;;11.20;99.90;;;;;;5073569;28;19966;-72
2022/06/29 09:42:00;;;;;;;;;;;11.30;99.90;;;;;;5073742;28;19916;-72
2022/06/29 09:44:27;;;;;;;;;;;11.20;99.90;;;;;;5073709;28;19908;-72
2022/06/29 09:46:55;;;;;;;;;;;11.20;99.90;;;;;;5074268;28;19913;-72
2022/06/29 09:49:25;;;;;;;;;;;11.20;99.90;;;;;;5076598;28;19913;-72
2022/06/29 09:51:56;;;;;;;;;;;11.20;99.90;;;;;;5077336;28;19908;-72
2022/06/29 09:54:28;;;;;;;;;;;11.20;99.90;;;;;;5077130;28;19913;-71
2022/06/29 09:56:56;;;;;;;;;;;11.20;99.90;;;;;;5077133;28;19915;-72
2022/06/29 10:02:34;;;;;;;;;;;11.20;99.90;;;;;;5077009;28;19916;-72
2022/06/29 10:02:36;;;;;;;;;;;11.20;99.90;;;;;;5077143;28;19913;-72
2022/06/29 10:05:07;;;;;;;;;;;11.20;99.90;;;;;;5077019;28;19912;-72
2022/06/29 10:07:35;;;;;;;;;;;11.20;99.90;;;;;;5076984;28;19969;-72
2022/06/29 10:10:03;;;;;;;;;;;11.20;99.90;;;;;;5076765;28;19916;-71
2022/06/29 10:15:49;;;;;;;;;;;11.10;99.90;;;;;;5076728;28;20364;-72
2022/06/29 10:18:34;;;;;;;;;;;11.10;99.90;;;;;;5076782;28;19908;-72
2022/06/29 10:21:01;;;;;;;;;;;11.10;99.90;;;;;;5076644;28;19916;-71
2022/06/29 10:23:53;;;;;;;;;;;11.10;99.90;;;;;;5076701;28;19908;-72
2022/06/29 10:28:56;;;;;;;;;;;11.10;99.90;;;;;;5076486;28;20012;-71
2022/06/29 10:31:41;;;;;;;;;;;11.10;99.90;;;;;;5076725;28;19909;-71
2022/06/29 10:34:34;;;;;;;;;;;11.10;99.90;;;;;;5076334;28;19917;-71
2022/06/29 10:37:01;;;;;;;;;;;11.00;99.90;;;;;;5073948;28;20246;-71
2022/06/29 10:39:27;;;;;;;;;;;11.10;99.90;;;;;;5076265;28;19952;-73
2022/06/29 10:44:59;;;;;;;;;;;11.00;99.90;;;;;;5054003;28;19917;-71
2022/06/29 10:47:26;;;;;;;;;;;11.10;99.90;;;;;;5072353;28;19912;-71
2022/06/29 10:50:11;;;;;;;;;;;11.10;99.90;;;;;;5076208;28;19915;-72
2022/06/29 10:52:37;;;;;;;;;;;11.10;99.90;;;;;;5076157;28;19999;-71
2022/06/29 10:55:04;;;;;;;;;;;11.00;99.90;;;;;;5076122;28;19995;-73
2022/06/29 10:57:34;;;;;;;;;;;11.10;99.90;;;;;;5076030;28;19915;-71
2022/06/29 11:00:05;;;;;;;;;;;11.00;99.90;;;;;;5075629;28;19970;-71
2022/06/29 11:02:32;;;;;;;;;;;11.10;99.90;;;;;;5074555;28;20278;-71
2022/06/29 11:04:59;;;;;;;;;;;11.00;99.90;;;;;;5075719;28;19908;-71
2022/06/29 11:12:56;;;;;;;;;;;11.00;99.90;;;;;;5076091;28;19919;-71
2022/06/29 11:15:48;;;;;;;;;;;11.00;99.90;;;;;;5074099;28;19909;-71
2022/06/29 11:18:16;;;;;;;;;;;11.00;99.90;;;;;;5075622;28;19908;-71
2022/06/29 11:20:44;;;;;;;;;;;10.90;99.90;;;;;;5075529;28;20358;-72
2022/06/29 11:23:14;;;;;;;;;;;10.90;99.90;;;;;;5075596;28;20280;-71
2022/06/29 11:25:43;;;;;;;;;;;10.90;99.90;;;;;;5075479;28;19908;-72
2022/06/29 11:28:10;;;;;;;;;;;10.90;99.90;;;;;;5075412;28;20258;-71
2022/06/29 11:30:37;;;;;;;;;;;10.80;99.90;;;;;;5075291;28;20002;-71
2022/06/29 11:33:10;;;;;;;;;;;10.80;99.90;;;;;;5075148;28;20281;-71
2022/06/29 11:35:42;;;;;;;;;;;10.90;99.90;;;;;;5075200;28;19969;-72
2022/06/29 11:38:09;;;;;;;;;;;10.90;99.90;;;;;;5075372;28;19921;-71
2022/06/29 11:40:41;;;;;;;;;;;10.80;99.90;;;;;;5075262;28;20463;-71
2022/06/29 11:43:08;;;;;;;;;;;10.80;99.90;;;;;;5075199;28;19908;-71
2022/06/29 11:45:36;;;;;;;;;;;10.80;99.90;;;;;;5075077;28;20061;-71
2022/06/29 11:48:10;;;;;;;;;;;10.80;99.90;;;;;;5074695;28;19908;-71
2022/06/29 11:50:49;;;;;;;;;;;10.80;99.90;;;;;;5075287;28;19939;-71
2022/06/29 11:53:36;;;;;;;;;;;10.80;99.90;;;;;;5074883;28;19912;-72
2022/06/29 11:56:08;;;;;;;;;;;10.80;99.90;;;;;;5074614;28;19908;-71
2022/06/29 11:58:35;;;;;;;;;;;10.80;99.90;;;;;;5074831;28;20285;-71
2022/06/29 12:01:05;;;;;;;;;;;10.80;99.90;;;;;;5074849;28;20429;-71
2022/06/29 12:03:32;;;;;;;;;;;10.80;99.90;;;;;;5074878;28;20259;-71
2022/06/29 12:05:59;;;;;;;;;;;10.80;99.90;;;;;;5074615;28;20273;-71
2022/06/29 12:08:30;;;;;;;;;;;10.80;99.90;;;;;;5074673;28;19919;-71
2022/06/29 12:10:57;;;;;;;;;;;10.80;99.90;;;;;;5074579;28;19995;-71
2022/06/29 12:13:24;;;;;;;;;;;10.80;99.90;;;;;;5074637;28;20315;-73
2022/06/29 12:15:51;;;;;;;;;;;10.80;99.90;;;;;;5074240;28;19952;-71
2022/06/29 12:18:18;;;;;;;;;;;10.80;99.90;;;;;;5074269;28;19908;-72
2022/06/29 12:20:45;;;;;;;;;;;10.80;99.90;;;;;;5073672;28;19927;-72
2022/06/29 12:23:12;;;;;;;;;;;10.80;99.90;;;;;;5073918;28;19908;-72
2022/06/29 12:25:38;;;;;;;;;;;10.90;99.90;;;;;;5073689;28;19909;-72
2022/06/29 12:28:05;;;;;;;;;;;10.80;99.90;;;;;;5072038;28;19939;-72
2022/06/29 12:30:32;;;;;;;;;;;10.90;99.90;;;;;;5072934;28;19984;-74
2022/06/29 12:32:58;;;;;;;;;;;10.80;99.90;;;;;;5071543;28;19916;-74
2022/06/29 12:35:25;;;;;;;;;;;10.80;99.90;;;;;;5065206;28;19950;-73
2022/06/29 12:37:57;;;;;;;;;;;10.80;99.90;;;;;;5053238;28;19917;-73
2022/06/29 12:40:24;;;;;;;;;;;10.80;99.90;;;;;;5052947;28;19974;-72
2022/06/29 12:42:52;;;;;;;;;;;10.80;99.90;;;;;;5054974;28;19909;-73
2022/06/29 12:45:19;;;;;;;;;;;10.80;99.90;;;;;;5054878;28;19912;-73
2022/06/29 12:47:46;;;;;;;;;;;10.70;99.90;;;;;;5053979;28;19942;-72
2022/06/29 12:50:13;;;;;;;;;;;10.70;99.90;;;;;;5053411;28;19955;-73
2022/06/29 12:52:46;;;;;;;;;;;10.70;99.90;;;;;;5053548;28;19962;-72
2022/06/29 12:55:13;;;;;;;;;;;10.70;99.90;;;;;;5055758;28;19909;-73
2022/06/29 12:57:40;;;;;;;;;;;10.70;99.90;;;;;;5055449;28;19908;-72
2022/06/29 13:00:08;;;;;;;;;;;10.60;99.90;;;;;;5052496;28;19912;-73
2022/06/29 13:02:35;;;;;;;;;;;10.60;99.90;;;;;;5054355;28;20012;-72
2022/06/29 13:05:02;;;;;;;;;;;10.60;99.90;;;;;;5053063;28;20285;-72
2022/06/29 13:07:29;;;;;;;;;;;10.60;99.90;;;;;;5052557;28;19992;-72
2022/06/29 13:09:57;;;;;;;;;;;10.60;99.90;;;;;;5052295;28;19995;-72
2022/06/29 13:12:24;;;;;;;;;;;10.60;99.90;;;;;;5054496;28;19917;-72
2022/06/29 13:14:50;;;;;;;;;;;10.60;99.90;;;;;;5055797;28;19909;-72
2022/06/29 13:17:17;;;;;;;;;;;10.60;99.90;;;;;;5053779;28;19909;-72
2022/06/29 13:19:44;;;;;;;;;;;10.60;99.90;;;;;;5054034;28;19924;-71
2022/06/29 13:22:15;;;;;;;;;;;10.50;99.90;;;;;;5052824;28;20377;-71
2022/06/29 13:24:42;;;;;;;;;;;10.50;99.90;;;;;;5052271;28;19909;-72
2022/06/29 13:27:09;;;;;;;;;;;10.50;99.90;;;;;;5052054;28;19909;-72
2022/06/29 13:29:36;;;;;;;;;;;10.50;99.90;;;;;;5055113;28;20396;-73
2022/06/29 13:32:03;;;;;;;;;;;10.50;99.90;;;;;;5054620;28;19913;-73
2022/06/29 13:34:29;;;;;;;;;;;10.50;99.90;;;;;;5053273;28;19909;-73
2022/06/29 13:36:56;;;;;;;;;;;10.50;99.90;;;;;;5052900;28;19952;-72
2022/06/29 13:39:23;;;;;;;;;;;10.40;99.90;;;;;;5055034;28;19909;-71
2022/06/29 13:41:50;;;;;;;;;;;10.40;99.90;;;;;;5054029;28;19924;-72
2022/06/29 13:44:16;;;;;;;;;;;10.50;99.90;;;;;;5054371;28;19913;-72
2022/06/29 13:46:43;;;;;;;;;;;10.50;99.90;;;;;;5054169;28;19936;-73
2022/06/29 13:49:10;;;;;;;;;;;10.50;99.90;;;;;;5052922;28;19909;-73
2022/06/29 13:51:37;;;;;;;;;;;10.50;99.90;;;;;;5052709;28;20285;-72
2022/06/29 13:54:04;;;;;;;;;;;10.50;99.90;;;;;;5052877;28;19917;-73
2022/06/29 13:56:30;;;;;;;;;;;10.50;99.90;;;;;;5071050;28;20295;-73
2022/06/29 13:58:57;;;;;;;;;;;10.50;99.90;;;;;;5071339;28;19910;-73
2022/06/29 14:01:24;;;;;;;;;;;10.50;99.90;;;;;;5071350;28;19920;-73
2022/06/29 14:03:51;;;;;;;;;;;10.50;99.90;;;;;;5072035;28;19991;-71
2022/06/29 14:06:18;;;;;;;;;;;10.50;99.90;;;;;;5072725;28;19930;-71
2022/06/29 14:08:44;;;;;;;;;;;10.50;99.90;;;;;;5072661;28;19908;-72
2022/06/29 14:11:11;;;;;;;;;;;10.40;99.90;;;;;;5072708;28;19951;-71
2022/06/29 14:13:38;;;;;;;;;;;10.40;99.90;;;;;;5076278;28;19915;-72
2022/06/29 14:16:07;;;;;;;;;;;10.40;99.90;;;;;;5076236;28;19909;-71
2022/06/29 14:18:34;;;;;;;;;;;10.40;99.90;;;;;;5074000;28;19908;-71
2022/06/29 14:21:01;;;;;;;;;;;10.40;99.90;;;;;;5075979;28;19931;-71
2022/06/29 14:23:28;;;;;;;;;;;10.40;99.90;;;;;;5076061;28;19916;-71
2022/06/29 14:25:54;;;;;;;;;;;10.40;99.90;;;;;;5076145;28;19916;-72
2022/06/29 14:28:22;;;;;;;;;;;10.40;99.90;;;;;;5076032;28;19947;-71
2022/06/29 14:30:49;;;;;;;;;;;10.40;99.90;;;;;;5075987;28;19909;-72
2022/06/29 14:33:15;;;;;;;;;;;10.40;99.90;;;;;;5075952;28;19978;-72
2022/06/29 14:35:42;;;;;;;;;;;10.40;99.90;;;;;;5075761;28;19915;-73
2022/06/29 14:38:09;;;;;;;;;;;10.30;99.90;;;;;;5075650;28;20353;-72
2022/06/29 14:40:36;;;;;;;;;;;10.30;99.90;;;;;;5075832;28;19960;-72